Terminal Aerodrome Forecast
Issued by NWS Des Moines, IA

Home | Current Version | Previous Version | Text Only | Print | Product List | Glossary On
Versions: 1 2 3 4 5 6 7 8 9 10 11 12 13 14 15 16 17 18 19 20 21 22 23 24 25 26 27 28 29 30 31 32 33 34
000
FTUS43 KDMX 210527
TAFDSM
TAF
KDSM 210527Z 2106/2206 10004KT 1SM -RA BR OVC002
     FM210800 11006KT 1/2SM -RA FG OVC002
     FM211000 18007KT 1/4SM FG BKN003
     FM211600 23008KT 2SM BR BKN005
     FM212000 24009KT P6SM BKN020
     FM220500 33007KT 5SM BR SCT008 BKN110=

USA.gov is the U.S. government's official web portal to all federal, state and local government web resources and services.